Search for airport 
image banner adimage banner adimage banner ad
image banner ad

PN83 - Skunk Hollow

Located in Plumville, United States

ICAO - PN83, IATA -

Data provided by Airmate  

General information

Coordinates: N40°48'10" W79°12'9"
Elevation is 1380 feet MSL.
Magnetic variation is -08° East
View others Airports in Pennsylvania

Operational data

Special qualification required
Current time UTC:
Current local time:
METAR: KIDI 182335Z AUTO 34004KT 9SM CLR 24/06 A3032 RMK A01
View NOTAMs / SUP AIP / TFR affecting this airport [VIEW]
Communications frequencies: [VIEW]

Runways:

RWY identifierQFULength (ft)Width (ft)SurfaceLDA (ft)
121300100GRASS
301300100GRASS

Airport contact information

Address: Plumville United States

Satellite view of PN83